Time;durP1;ratioP1;P1;durP2;ratioP2;P2;SDS_P1;SDS_P2;PMS_P1;PMS_P2;Temp;Humidity;BMP_temperature;BMP_pressure;BME280_temperature;BME280_humidity;BME280_pressure;Samples;Min_cycle;Max_cycle;Signal;HPM_P1;HPM_P2
2021/03/02 00:02:13;;;;;;;10.30;9.20;;;5.50;99.90;;;;;;4976152;28;20181;-70
2021/03/02 00:04:43;;;;;;;13.53;9.40;;;5.50;99.90;;;;;;4975255;28;21040;-69
2021/03/02 00:07:10;;;;;;;14.70;9.33;;;5.50;99.90;;;;;;4990249;28;20445;-70
2021/03/02 00:09:37;;;;;;;12.53;10.43;;;5.40;99.90;;;;;;4984370;28;20520;-70
2021/03/02 00:12:03;;;;;;;16.30;11.80;;;5.40;99.90;;;;;;4982350;28;20529;-68
2021/03/02 00:14:28;;;;;;;18.53;9.80;;;5.30;99.90;;;;;;4989622;28;20513;-70
2021/03/02 00:17:01;;;;;;;14.83;11.20;;;5.30;99.90;;;;;;4979900;28;20489;-69
2021/03/02 00:19:44;;;;;;;17.83;9.80;;;5.30;99.90;;;;;;4990936;28;20257;-69
2021/03/02 00:22:28;;;;;;;13.83;9.80;;;5.30;99.90;;;;;;4989100;28;20466;-69
2021/03/02 00:24:56;;;;;;;14.33;9.70;;;5.30;99.90;;;;;;4985172;28;20995;-70
2021/03/02 00:27:23;;;;;;;14.50;9.83;;;5.20;99.90;;;;;;4982291;28;20431;-69
2021/03/02 00:29:50;;;;;;;10.67;8.73;;;5.10;99.90;;;;;;4975083;28;20463;-70
2021/03/02 00:32:22;;;;;;;15.07;10.03;;;5.10;99.90;;;;;;4989100;28;20451;-69
2021/03/02 00:34:48;;;;;;;10.80;9.17;;;5.00;99.90;;;;;;4988708;28;20426;-70
2021/03/02 00:37:14;;;;;;;13.90;9.90;;;5.00;99.90;;;;;;4988732;28;20431;-69
2021/03/02 00:39:41;;;;;;;16.33;9.97;;;4.90;99.90;;;;;;4979067;28;20562;-69
2021/03/02 00:42:06;;;;;;;13.40;9.30;;;4.90;99.90;;;;;;4985508;28;20466;-69
2021/03/02 00:44:32;;;;;;;17.03;9.20;;;4.90;99.90;;;;;;4989644;28;21016;-69
2021/03/02 00:46:58;;;;;;;16.20;9.27;;;5.00;99.90;;;;;;4989736;28;20558;-70
2021/03/02 00:49:23;;;;;;;13.90;10.23;;;5.30;99.90;;;;;;4989402;28;20939;-68
2021/03/02 00:51:49;;;;;;;12.97;8.93;;;5.00;99.90;;;;;;4991200;28;20167;-70
2021/03/02 00:54:15;;;;;;;13.60;9.50;;;5.00;99.90;;;;;;4986920;28;20188;-70
2021/03/02 00:56:40;;;;;;;12.97;9.80;;;5.00;99.90;;;;;;4980112;28;20262;-69
2021/03/02 00:59:06;;;;;;;12.50;8.97;;;4.90;99.90;;;;;;4983359;28;20550;-69
2021/03/02 01:01:32;;;;;;;20.23;13.53;;;4.90;99.90;;;;;;4980698;28;20180;-69
2021/03/02 01:03:57;;;;;;;21.33;14.67;;;4.90;99.90;;;;;;4980121;28;20183;-70
2021/03/02 01:06:23;;;;;;;20.60;10.90;;;4.80;99.90;;;;;;4981845;28;20443;-70
2021/03/02 01:08:48;;;;;;;15.60;10.33;;;4.80;99.90;;;;;;4984702;28;20187;-70
2021/03/02 01:11:14;;;;;;;15.07;10.30;;;4.80;99.90;;;;;;4989834;28;20545;-69
2021/03/02 01:13:40;;;;;;;12.80;8.43;;;4.80;99.90;;;;;;4979256;28;20360;-70
2021/03/02 01:16:05;;;;;;;14.23;9.23;;;4.80;99.90;;;;;;4983027;28;20222;-70
2021/03/02 01:18:31;;;;;;;13.30;10.70;;;4.80;99.90;;;;;;4985149;28;20226;-69
2021/03/02 01:20:57;;;;;;;15.07;9.67;;;4.80;99.90;;;;;;4986818;28;20203;-69
2021/03/02 01:23:22;;;;;;;14.70;9.60;;;4.70;99.90;;;;;;4980288;28;20637;-71
2021/03/02 01:25:48;;;;;;;15.47;9.17;;;4.70;99.90;;;;;;4988850;28;20188;-69
2021/03/02 01:28:13;;;;;;;13.40;9.13;;;4.70;99.90;;;;;;4989298;28;20188;-69
2021/03/02 01:30:39;;;;;;;10.70;9.20;;;4.70;99.90;;;;;;4999924;28;20700;-70
2021/03/02 01:33:05;;;;;;;11.90;9.40;;;4.70;99.90;;;;;;4977551;28;20191;-69
2021/03/02 01:35:31;;;;;;;9.37;8.30;;;4.70;99.90;;;;;;4989408;28;20525;-70
2021/03/02 01:37:57;;;;;;;11.30;9.10;;;4.60;99.90;;;;;;4988244;28;20457;-69
2021/03/02 01:40:23;;;;;;;13.83;10.20;;;4.60;99.90;;;;;;4989674;28;20298;-70
2021/03/02 01:42:48;;;;;;;13.77;9.20;;;4.60;99.90;;;;;;4986409;28;20198;-71
2021/03/02 01:45:18;;;;;;;13.50;8.60;;;4.50;99.90;;;;;;4988498;28;20577;-70
2021/03/02 01:47:45;;;;;;;14.57;10.10;;;4.50;99.90;;;;;;4985436;28;20180;-70
2021/03/02 01:50:12;;;;;;;12.77;10.10;;;4.40;99.90;;;;;;4980553;28;20470;-70
2021/03/02 01:52:38;;;;;;;12.20;9.37;;;4.40;99.90;;;;;;4983007;28;20473;-70
2021/03/02 01:55:06;;;;;;;14.03;10.53;;;4.40;99.90;;;;;;4984672;28;20438;-69
2021/03/02 01:57:32;;;;;;;10.90;8.90;;;4.40;99.90;;;;;;4972865;28;20434;-70
2021/03/02 01:59:57;;;;;;;11.83;9.33;;;4.40;99.90;;;;;;4983410;28;20829;-70
2021/03/02 02:02:40;;;;;;;13.00;10.20;;;4.40;99.90;;;;;;4991582;28;21448;-70
2021/03/02 02:05:08;;;;;;;13.00;9.43;;;4.40;99.90;;;;;;4987743;28;20183;-69
2021/03/02 02:07:40;;;;;;;11.23;8.90;;;4.40;99.90;;;;;;4989692;28;20454;-70
2021/03/02 02:10:12;;;;;;;12.80;8.80;;;4.30;99.90;;;;;;4981873;28;20474;-70
2021/03/02 02:13:05;;;;;;;11.73;9.40;;;4.20;99.90;;;;;;4991231;28;20438;-70
2021/03/02 02:15:40;;;;;;;12.83;8.90;;;4.10;99.90;;;;;;4985080;28;20965;-70
2021/03/02 02:18:10;;;;;;;11.70;10.20;;;4.10;99.90;;;;;;4992492;28;20426;-69
2021/03/02 02:21:11;;;;;;;13.90;9.20;;;4.10;99.90;;;;;;4989324;28;20828;-69
2021/03/02 02:24:15;;;;;;;10.90;9.03;;;4.10;99.90;;;;;;4982780;28;20454;-71
2021/03/02 02:26:55;;;;;;;11.73;9.47;;;4.10;99.90;;;;;;4989422;28;20434;-73
2021/03/02 02:29:30;;;;;;;16.63;8.77;;;4.20;99.90;;;;;;4990547;28;20470;-69
2021/03/02 02:31:58;;;;;;;12.07;10.20;;;4.00;99.90;;;;;;4985214;28;20427;-67
2021/03/02 02:34:26;;;;;;;12.27;8.70;;;4.00;99.90;;;;;;4975575;28;20522;-69
2021/03/02 02:36:54;;;;;;;11.97;8.80;;;4.00;99.90;;;;;;4977039;28;20433;-70
2021/03/02 02:39:21;;;;;;;12.90;9.27;;;4.00;99.90;;;;;;4991821;28;20450;-70
2021/03/02 02:41:48;;;;;;;12.90;9.50;;;4.00;99.90;;;;;;4983103;28;20522;-69
2021/03/02 02:44:15;;;;;;;12.10;9.27;;;4.00;99.90;;;;;;4985538;28;20442;-70
2021/03/02 02:46:42;;;;;;;14.33;9.33;;;4.00;99.90;;;;;;4988999;28;20501;-70
2021/03/02 02:49:10;;;;;;;12.33;9.53;;;4.00;99.90;;;;;;4983491;28;20443;-69
2021/03/02 02:51:37;;;;;;;11.00;9.07;;;4.00;99.90;;;;;;4986380;28;20481;-70
2021/03/02 02:54:03;;;;;;;10.20;7.93;;;3.90;99.90;;;;;;4987079;28;20432;-69
2021/03/02 02:56:30;;;;;;;14.47;9.07;;;3.90;99.90;;;;;;4992188;28;20438;-69
2021/03/02 02:59:04;;;;;;;10.73;8.40;;;3.80;99.90;;;;;;4992414;28;20442;-70
2021/03/02 03:01:43;;;;;;;10.53;8.90;;;3.80;99.90;;;;;;4987894;28;20497;-70
2021/03/02 03:04:12;;;;;;;14.80;8.87;;;3.70;99.90;;;;;;4988339;28;20442;-70
2021/03/02 03:06:42;;;;;;;13.23;8.67;;;3.80;99.90;;;;;;4992660;28;20529;-70
2021/03/02 03:09:07;;;;;;;13.23;9.90;;;3.70;99.90;;;;;;4979116;28;20453;-72
2021/03/02 03:11:42;;;;;;;11.70;9.90;;;3.70;99.90;;;;;;4990527;28;20526;-70
2021/03/02 03:14:11;;;;;;;12.90;8.70;;;3.70;99.90;;;;;;4987564;28;20206;-71
2021/03/02 03:16:40;;;;;;;13.10;9.33;;;3.70;99.90;;;;;;4991194;28;20442;-68
2021/03/02 03:19:07;;;;;;;12.37;8.53;;;3.70;99.90;;;;;;4991624;28;20435;-71
2021/03/02 03:21:34;;;;;;;17.17;9.90;;;3.70;99.90;;;;;;4987810;28;20460;-73
2021/03/02 03:24:01;;;;;;;13.80;8.50;;;3.70;99.90;;;;;;4977492;28;20438;-68
2021/03/02 03:26:31;;;;;;;8.30;7.47;;;3.70;99.90;;;;;;4989149;28;20526;-68
2021/03/02 03:28:58;;;;;;;10.80;8.10;;;3.70;99.90;;;;;;4991840;28;20431;-69
2021/03/02 03:31:24;;;;;;;11.90;7.97;;;3.70;99.90;;;;;;4980716;28;20482;-68
2021/03/02 03:33:52;;;;;;;10.40;8.10;;;3.70;99.90;;;;;;4989217;28;20541;-70
2021/03/02 03:36:17;;;;;;;10.10;8.60;;;3.70;99.90;;;;;;4991025;28;20450;-71
2021/03/02 03:38:43;;;;;;;12.83;8.30;;;3.70;99.90;;;;;;4991239;28;20446;-68
2021/03/02 03:41:09;;;;;;;11.67;8.03;;;3.70;99.90;;;;;;4990948;28;20247;-69
2021/03/02 03:43:35;;;;;;;10.20;8.30;;;3.70;99.90;;;;;;4988528;28;20194;-68
2021/03/02 03:46:00;;;;;;;12.80;8.50;;;3.60;99.90;;;;;;4991176;28;20188;-68
2021/03/02 03:48:26;;;;;;;13.80;8.63;;;3.50;99.90;;;;;;4990978;28;20809;-70
2021/03/02 03:50:52;;;;;;;12.63;9.33;;;3.50;99.90;;;;;;4982679;28;20212;-68
2021/03/02 03:53:20;;;;;;;11.30;8.60;;;3.40;99.90;;;;;;4981109;28;20600;-69
2021/03/02 03:55:48;;;;;;;13.43;8.47;;;3.40;99.90;;;;;;4981457;28;20195;-71
2021/03/02 03:58:25;;;;;;;13.13;9.07;;;3.40;99.90;;;;;;4990012;28;20813;-71
2021/03/02 04:00:53;;;;;;;12.53;8.57;;;3.40;99.90;;;;;;4978742;28;20834;-68
2021/03/02 04:03:20;;;;;;;12.07;9.43;;;3.30;99.90;;;;;;4981370;28;20431;-68
2021/03/02 04:05:46;;;;;;;13.27;9.00;;;3.20;99.90;;;;;;4978540;28;20439;-68
2021/03/02 04:08:12;;;;;;;12.67;8.73;;;3.20;99.90;;;;;;4988194;28;20442;-68
2021/03/02 04:10:39;;;;;;;16.73;9.03;;;3.20;99.90;;;;;;4972328;28;20472;-71
2021/03/02 04:13:12;;;;;;;12.30;8.00;;;3.20;99.90;;;;;;4981715;28;20876;-68
2021/03/02 04:15:38;;;;;;;10.53;8.43;;;3.20;99.90;;;;;;4977421;28;20967;-68
2021/03/02 04:18:11;;;;;;;12.90;9.50;;;3.20;99.90;;;;;;4988471;28;20442;-68
2021/03/02 04:20:38;;;;;;;13.30;8.33;;;3.20;99.90;;;;;;4986758;28;20755;-69
2021/03/02 04:23:03;;;;;;;12.73;9.33;;;3.20;99.90;;;;;;4979289;28;20475;-69
2021/03/02 04:25:30;;;;;;;13.80;8.63;;;3.20;99.90;;;;;;4989514;28;20475;-71
2021/03/02 04:27:55;;;;;;;12.67;10.03;;;3.20;99.90;;;;;;4976256;28;20187;-68
2021/03/02 04:30:21;;;;;;;15.73;9.47;;;3.20;99.90;;;;;;4972755;28;20996;-70
2021/03/02 04:32:47;;;;;;;13.77;8.13;;;3.20;99.90;;;;;;4982546;28;20184;-71
2021/03/02 04:35:13;;;;;;;12.63;9.33;;;3.20;99.90;;;;;;4984917;28;20435;-71
2021/03/02 04:37:39;;;;;;;13.33;9.43;;;3.10;99.90;;;;;;4973236;28;20583;-70
2021/03/02 04:40:06;;;;;;;14.17;9.30;;;3.00;99.90;;;;;;4985498;28;20534;-70
2021/03/02 04:42:31;;;;;;;13.27;9.80;;;3.00;99.90;;;;;;4978320;28;20307;-71
2021/03/02 04:44:57;;;;;;;14.20;9.70;;;3.00;99.90;;;;;;4987274;28;20928;-70
2021/03/02 04:47:23;;;;;;;13.73;9.30;;;2.90;99.90;;;;;;4989675;28;20645;-68
2021/03/02 04:49:49;;;;;;;13.40;10.27;;;2.90;99.90;;;;;;4990076;28;20238;-68
2021/03/02 04:52:16;;;;;;;12.87;9.57;;;2.90;99.90;;;;;;4988608;28;20808;-69
2021/03/02 04:54:42;;;;;;;13.53;9.90;;;2.90;99.90;;;;;;4976650;28;20184;-72
2021/03/02 04:57:07;;;;;;;13.67;9.30;;;2.90;99.90;;;;;;4971986;28;20813;-68
2021/03/02 04:59:33;;;;;;;11.00;9.00;;;2.90;99.90;;;;;;4989457;28;20621;-67
2021/03/02 05:01:59;;;;;;;10.57;8.50;;;2.90;99.90;;;;;;4982824;28;20184;-69
2021/03/02 05:04:24;;;;;;;12.87;10.00;;;2.90;99.90;;;;;;4988506;28;20190;-69
2021/03/02 05:06:50;;;;;;;13.47;10.20;;;2.90;99.90;;;;;;4990090;28;20184;-69
2021/03/02 05:09:15;;;;;;;13.00;10.10;;;2.90;99.90;;;;;;4974444;28;20188;-71
2021/03/02 05:11:41;;;;;;;14.00;10.20;;;2.90;99.90;;;;;;4990668;28;20215;-68
2021/03/02 05:14:06;;;;;;;14.80;10.00;;;2.90;99.90;;;;;;4980544;28;20198;-70
2021/03/02 05:16:32;;;;;;;14.97;9.63;;;2.90;99.90;;;;;;4971578;28;20262;-72
2021/03/02 05:18:58;;;;;;;13.87;11.90;;;2.90;99.90;;;;;;4987123;28;20239;-71
2021/03/02 05:21:23;;;;;;;14.53;11.20;;;2.90;99.90;;;;;;4987755;28;20203;-69
2021/03/02 05:23:49;;;;;;;14.13;10.60;;;2.90;99.90;;;;;;4982744;28;20192;-68
2021/03/02 05:26:14;;;;;;;15.80;12.93;;;2.90;99.90;;;;;;4983065;28;20191;-69
2021/03/02 05:28:40;;;;;;;14.50;10.10;;;2.90;99.90;;;;;;4977092;28;20200;-69
2021/03/02 05:31:05;;;;;;;14.07;11.27;;;2.80;99.90;;;;;;4980696;28;20227;-68
2021/03/02 05:33:31;;;;;;;15.87;11.03;;;2.80;99.90;;;;;;4984273;28;20184;-69
2021/03/02 05:35:56;;;;;;;16.67;11.57;;;2.90;99.90;;;;;;4977261;28;20192;-68
2021/03/02 05:38:22;;;;;;;11.60;10.40;;;2.80;99.90;;;;;;4993191;28;20176;-69
2021/03/02 05:40:47;;;;;;;16.40;10.47;;;2.80;99.90;;;;;;4994633;28;20238;-71
2021/03/02 05:43:13;;;;;;;12.30;10.63;;;2.80;99.90;;;;;;4990900;28;20561;-70
2021/03/02 05:45:38;;;;;;;19.00;11.60;;;2.70;99.90;;;;;;4993444;28;20716;-69
2021/03/02 05:48:09;;;;;;;15.20;11.43;;;2.60;99.90;;;;;;4990755;28;20191;-69
2021/03/02 05:50:35;;;;;;;14.27;10.57;;;2.60;99.90;;;;;;4986136;28;20207;-70
2021/03/02 05:53:01;;;;;;;16.83;10.93;;;2.60;99.90;;;;;;4990964;28;20520;-69
2021/03/02 05:55:28;;;;;;;16.70;11.30;;;2.50;99.90;;;;;;4987193;28;20199;-70
2021/03/02 05:57:55;;;;;;;16.63;11.27;;;2.50;99.90;;;;;;4987826;28;20497;-70
2021/03/02 06:00:21;;;;;;;18.17;11.37;;;2.50;99.90;;;;;;4990632;28;20449;-71
2021/03/02 06:02:46;;;;;;;14.30;11.80;;;2.50;99.90;;;;;;4991324;28;20549;-70
2021/03/02 06:05:14;;;;;;;15.57;12.60;;;2.50;99.90;;;;;;4990020;28;20521;-69
2021/03/02 06:07:39;;;;;;;16.40;11.90;;;2.50;99.90;;;;;;4984396;28;20185;-70
2021/03/02 06:10:06;;;;;;;18.80;11.77;;;2.50;99.90;;;;;;4979899;28;20462;-70
2021/03/02 06:12:49;;;;;;;17.83;11.73;;;2.60;99.90;;;;;;4990733;28;20188;-70
2021/03/02 06:15:17;;;;;;;15.73;11.30;;;2.60;99.90;;;;;;4991078;28;20932;-69
2021/03/02 06:17:43;;;;;;;17.63;12.43;;;2.60;99.90;;;;;;4978980;28;20438;-69
2021/03/02 06:20:21;;;;;;;15.43;12.43;;;2.70;99.90;;;;;;4997419;28;20528;-70
2021/03/02 06:22:47;;;;;;;17.17;11.30;;;2.70;99.90;;;;;;4989263;28;20266;-70
2021/03/02 06:25:30;;;;;;;17.67;11.30;;;2.70;99.90;;;;;;4991998;28;20438;-70
2021/03/02 06:27:57;;;;;;;14.83;10.77;;;2.60;99.90;;;;;;4989705;28;20962;-69
2021/03/02 06:30:23;;;;;;;15.97;12.20;;;2.60;99.90;;;;;;5001579;28;20465;-70
2021/03/02 06:32:53;;;;;;;17.17;12.27;;;2.70;99.90;;;;;;4995551;28;20442;-70
2021/03/02 06:35:42;;;;;;;19.53;14.30;;;2.80;99.90;;;;;;5001495;28;20780;-72
2021/03/02 06:38:08;;;;;;;24.97;16.30;;;2.90;99.90;;;;;;4981710;28;20450;-69
2021/03/02 06:40:45;;;;;;;16.23;12.40;;;3.10;99.90;;;;;;4989518;28;20475;-71
2021/03/02 06:43:28;;;;;;;20.70;13.10;;;3.30;99.90;;;;;;4992944;28;20445;-69
2021/03/02 06:45:54;;;;;;;18.13;12.73;;;3.60;99.90;;;;;;4988305;28;20474;-70
2021/03/02 06:48:19;;;;;;;19.93;13.53;;;3.80;99.90;;;;;;4975018;28;20458;-73
2021/03/02 06:50:45;;;;;;;25.90;13.67;;;3.90;99.90;;;;;;4986003;28;20730;-70
2021/03/02 06:53:11;;;;;;;15.53;12.00;;;4.10;99.90;;;;;;4980957;28;20195;-68
2021/03/02 06:55:38;;;;;;;19.53;12.90;;;4.20;99.90;;;;;;4978261;28;20242;-73
2021/03/02 06:58:23;;;;;;;19.73;13.63;;;4.30;99.90;;;;;;4987236;28;20428;-69
2021/03/02 07:00:57;;;;;;;21.57;11.43;;;4.50;99.90;;;;;;4990750;28;20493;-71
2021/03/02 07:03:24;;;;;;;16.50;12.20;;;4.70;99.90;;;;;;4988806;28;20457;-69
2021/03/02 07:05:50;;;;;;;17.10;12.70;;;4.90;99.90;;;;;;4985805;28;20792;-70
2021/03/02 07:08:16;;;;;;;16.67;11.80;;;5.00;99.90;;;;;;4988407;28;20438;-69
2021/03/02 07:10:42;;;;;;;23.17;13.43;;;5.20;99.90;;;;;;4973364;28;20251;-70
2021/03/02 07:13:10;;;;;;;21.03;14.00;;;5.40;99.90;;;;;;4978876;28;20435;-69
2021/03/02 07:15:39;;;;;;;29.10;17.10;;;5.70;99.90;;;;;;4984278;28;20172;-70
2021/03/02 07:18:06;;;;;;;18.57;15.17;;;5.90;99.90;;;;;;4977696;28;20431;-70
2021/03/02 07:20:33;;;;;;;22.63;15.87;;;6.20;99.90;;;;;;4984045;28;20827;-68
2021/03/02 07:23:01;;;;;;;18.90;14.60;;;6.50;99.90;;;;;;4982228;28;20447;-70
2021/03/02 07:25:29;;;;;;;17.03;13.30;;;6.70;99.90;;;;;;4990074;28;20438;-69
2021/03/02 07:27:58;;;;;;;15.93;12.43;;;6.90;99.90;;;;;;4988474;28;20966;-70
2021/03/02 07:30:25;;;;;;;16.90;14.33;;;7.00;99.90;;;;;;4984573;28;20470;-69
2021/03/02 07:32:51;;;;;;;27.30;17.90;;;7.20;99.90;;;;;;4979050;28;20431;-69
2021/03/02 07:35:21;;;;;;;17.00;13.93;;;7.40;99.90;;;;;;4984309;28;20442;-69
2021/03/02 07:37:47;;;;;;;22.63;16.43;;;7.60;99.90;;;;;;4991273;28;20821;-70
2021/03/02 07:40:18;;;;;;;21.43;16.13;;;7.60;99.90;;;;;;4984512;28;20716;-70
2021/03/02 07:42:43;;;;;;;28.07;16.63;;;7.80;99.90;;;;;;4971753;28;20987;-70
2021/03/02 07:45:13;;;;;;;21.53;16.70;;;7.90;99.90;;;;;;4989573;28;20446;-69
2021/03/02 07:47:47;;;;;;;24.60;15.57;;;8.10;99.90;;;;;;4992040;28;20186;-68
2021/03/02 07:50:18;;;;;;;31.50;19.63;;;8.30;99.90;;;;;;4984529;28;20498;-70
2021/03/02 07:52:45;;;;;;;23.60;16.93;;;8.50;99.90;;;;;;4981979;28;20517;-69
2021/03/02 07:55:20;;;;;;;26.40;14.13;;;8.70;99.90;;;;;;4984286;28;21243;-68
2021/03/02 07:57:46;;;;;;;15.07;12.77;;;8.90;99.90;;;;;;4983860;28;20501;-69
2021/03/02 08:00:14;;;;;;;17.03;12.53;;;9.00;99.90;;;;;;4985669;28;20459;-69
2021/03/02 08:02:40;;;;;;;20.63;13.43;;;8.90;99.90;;;;;;4987811;28;20798;-70
2021/03/02 08:05:29;;;;;;;20.63;13.27;;;9.00;99.90;;;;;;4988074;28;20438;-69
2021/03/02 08:08:22;;;;;;;18.03;13.30;;;9.30;99.90;;;;;;4982924;28;20188;-70
2021/03/02 08:10:48;;;;;;;21.57;15.50;;;9.20;99.90;;;;;;4982581;28;20467;-70
2021/03/02 08:13:35;;;;;;;20.80;13.80;;;9.50;99.90;;;;;;4977283;28;20436;-67
2021/03/02 08:16:02;;;;;;;20.90;13.70;;;10.00;99.90;;;;;;4986936;28;20179;-70
2021/03/02 08:18:45;;;;;;;16.73;14.23;;;10.00;99.90;;;;;;4975415;28;20461;-69
2021/03/02 08:21:19;;;;;;;15.97;13.37;;;9.60;99.90;;;;;;4987014;28;20458;-70
2021/03/02 08:23:53;;;;;;;19.20;13.77;;;9.40;99.90;;;;;;4987181;28;20434;-70
2021/03/02 08:26:34;;;;;;;20.00;12.77;;;9.50;99.90;;;;;;4988539;28;20434;-70
2021/03/02 08:29:17;;;;;;;17.50;13.50;;;10.10;99.90;;;;;;4989413;28;21034;-70
2021/03/02 08:31:47;;;;;;;16.93;14.23;;;10.70;99.90;;;;;;4976890;28;20477;-69
2021/03/02 08:34:18;;;;;;;15.60;13.63;;;11.20;99.90;;;;;;4980744;28;20439;-70
2021/03/02 08:36:48;;;;;;;20.80;14.00;;;11.60;99.90;;;;;;4974973;28;20478;-70
2021/03/02 08:39:16;;;;;;;18.77;13.83;;;11.60;99.90;;;;;;4988365;28;20426;-70
2021/03/02 08:41:46;;;;;;;18.40;14.47;;;12.00;99.90;;;;;;4978016;28;20853;-71
2021/03/02 08:44:18;;;;;;;18.43;13.40;;;12.40;99.90;;;;;;4987828;28;20497;-70
2021/03/02 08:46:48;;;;;;;15.53;13.70;;;12.70;99.50;;;;;;4984928;28;20447;-71
2021/03/02 08:49:14;;;;;;;16.70;13.83;;;12.90;99.20;;;;;;4978461;28;20427;-71
2021/03/02 08:51:40;;;;;;;20.23;16.20;;;13.30;98.10;;;;;;4987917;28;20470;-71
2021/03/02 08:54:06;;;;;;;15.90;13.93;;;13.80;96.80;;;;;;4987366;28;20445;-71
2021/03/02 08:56:32;;;;;;;18.40;15.57;;;14.10;96.00;;;;;;4986781;28;20974;-71
2021/03/02 08:59:01;;;;;;;15.63;14.03;;;14.70;94.60;;;;;;4976698;28;20445;-71
2021/03/02 09:01:30;;;;;;;14.73;13.30;;;14.80;92.90;;;;;;4983165;28;20798;-70
2021/03/02 09:04:08;;;;;;;16.75;15.15;;;15.10;92.70;;;;;;4975676;28;20517;-70
2021/03/02 09:06:34;;;;;;;19.00;15.03;;;15.60;91.50;;;;;;4972213;28;20176;-71
2021/03/02 09:09:15;;;;;;;19.20;14.80;;;16.20;88.60;;;;;;4977723;28;20792;-70
2021/03/02 09:11:47;;;;;;;17.13;14.17;;;15.60;87.00;;;;;;4988830;28;20472;-70
2021/03/02 09:14:16;;;;;;;15.93;14.43;;;15.20;89.60;;;;;;4990983;28;20484;-71
2021/03/02 09:16:51;;;;;;;17.90;16.03;;;16.30;86.60;;;;;;4980792;28;20868;-71
2021/03/02 09:19:28;;;;;;;22.93;15.10;;;16.40;83.40;;;;;;4985991;28;20537;-71
2021/03/02 09:21:55;;;;;;;18.10;15.60;;;17.30;80.90;;;;;;4979522;28;20441;-71
2021/03/02 09:24:23;;;;;;;17.40;14.87;;;16.80;78.60;;;;;;4991786;28;20598;-70
2021/03/02 09:27:15;;;;;;;16.93;14.60;;;16.40;79.50;;;;;;4991314;28;20843;-70
2021/03/02 09:29:44;;;;;;;16.83;15.13;;;17.50;78.30;;;;;;4993867;28;20458;-71
2021/03/02 09:32:11;;;;;;;18.10;15.53;;;17.50;74.20;;;;;;4982556;28;20426;-71
2021/03/02 09:34:46;;;;;;;16.77;14.37;;;17.60;75.80;;;;;;4980547;28;20484;-70
2021/03/02 09:37:18;;;;;;;16.00;14.40;;;18.70;71.10;;;;;;4986118;28;20790;-71
2021/03/02 09:39:56;;;;;;;22.20;16.20;;;19.20;67.30;;;;;;4984035;28;20473;-71
2021/03/02 09:42:24;;;;;;;18.50;15.83;;;17.90;69.10;;;;;;4976698;28;20462;-71
2021/03/02 09:44:52;;;;;;;17.80;16.00;;;17.90;71.30;;;;;;4988373;28;20427;-71
2021/03/02 09:47:25;;;;;;;17.30;15.50;;;17.50;70.20;;;;;;4980089;28;20431;-71
2021/03/02 09:50:10;;;;;;;18.63;15.63;;;18.50;69.70;;;;;;4989252;28;20477;-71
2021/03/02 09:52:42;;;;;;;17.23;15.50;;;19.60;64.50;;;;;;4987539;28;20442;-70
2021/03/02 09:55:30;;;;;;;18.13;16.23;;;18.20;65.00;;;;;;4989311;28;20442;-71
2021/03/02 09:58:13;;;;;;;19.33;15.40;;;17.90;67.10;;;;;;4982713;28;20434;-72
2021/03/02 10:00:40;;;;;;;18.57;16.67;;;19.30;64.80;;;;;;4974635;28;20466;-72
2021/03/02 10:03:09;;;;;;;17.17;15.53;;;20.00;63.00;;;;;;4985212;28;20952;-71
2021/03/02 10:05:36;;;;;;;17.10;15.17;;;20.50;61.00;;;;;;4982826;28;20436;-72
2021/03/02 10:08:20;;;;;;;17.30;15.60;;;21.10;59.10;;;;;;4984880;28;20475;-70
2021/03/02 10:10:46;;;;;;;17.03;15.23;;;20.70;57.00;;;;;;4985200;28;20474;-70
2021/03/02 10:13:20;;;;;;;18.70;16.73;;;20.10;58.00;;;;;;4981119;28;20436;-71
2021/03/02 10:15:45;;;;;;;18.60;16.00;;;20.40;58.40;;;;;;4981313;28;20781;-72
2021/03/02 10:18:26;;;;;;;15.80;14.33;;;21.40;56.50;;;;;;4981797;28;20438;-72
2021/03/02 10:21:07;;;;;;;17.13;15.17;;;21.40;56.30;;;;;;4980039;28;20334;-71
2021/03/02 10:23:33;;;;;;;20.40;16.60;;;22.20;55.10;;;;;;4989224;28;20441;-72
2021/03/02 10:25:59;;;;;;;17.70;16.00;;;23.40;53.20;;;;;;4991073;28;20442;-71
2021/03/02 10:28:32;;;;;;;16.80;15.17;;;24.30;50.90;;;;;;4982858;28;20473;-72
2021/03/02 10:30:58;;;;;;;19.50;17.10;;;24.10;49.30;;;;;;4983139;28;20898;-72
2021/03/02 10:33:24;;;;;;;16.90;15.30;;;23.90;49.10;;;;;;4986399;28;20445;-71
2021/03/02 10:35:49;;;;;;;17.87;16.03;;;24.20;48.90;;;;;;4988353;28;20446;-71
2021/03/02 10:38:15;;;;;;;18.83;16.87;;;25.20;47.70;;;;;;4984156;28;20184;-71
2021/03/02 10:40:40;;;;;;;17.20;15.60;;;24.00;47.50;;;;;;4982363;28;20273;-72
2021/03/02 10:43:06;;;;;;;16.90;15.10;;;24.50;46.80;;;;;;4988378;28;20189;-72
2021/03/02 10:45:31;;;;;;;16.90;15.40;;;23.10;48.40;;;;;;4984281;28;20622;-72
2021/03/02 10:47:57;;;;;;;17.90;14.97;;;23.00;49.30;;;;;;4991644;28;20195;-72
2021/03/02 10:50:23;;;;;;;16.23;14.70;;;24.70;47.60;;;;;;4976392;28;20226;-71
2021/03/02 10:52:48;;;;;;;18.67;17.07;;;24.80;46.10;;;;;;4985842;28;20184;-72
2021/03/02 10:55:14;;;;;;;16.77;15.07;;;25.60;45.60;;;;;;4982538;28;20794;-71
2021/03/02 10:57:39;;;;;;;18.40;15.23;;;26.80;44.20;;;;;;4979492;28;20215;-72
2021/03/02 11:00:05;;;;;;;16.40;14.90;;;26.90;43.10;;;;;;4988762;28;20227;-72
2021/03/02 11:02:31;;;;;;;14.60;13.20;;;27.90;41.50;;;;;;4987776;28;20775;-72
2021/03/02 11:04:56;;;;;;;17.40;15.93;;;28.50;40.70;;;;;;4980116;28;20466;-71
2021/03/02 11:07:22;;;;;;;15.97;14.60;;;28.50;39.50;;;;;;4987783;28;20219;-72
2021/03/02 11:09:49;;;;;;;15.73;14.53;;;29.50;38.70;;;;;;4977971;28;20239;-70
2021/03/02 11:12:15;;;;;;;16.70;15.13;;;29.30;37.80;;;;;;4988433;28;20188;-73
2021/03/02 11:14:41;;;;;;;16.47;13.90;;;29.70;37.40;;;;;;4984809;28;20439;-69
2021/03/02 11:17:06;;;;;;;17.17;15.67;;;29.90;36.60;;;;;;4983610;28;20188;-70
2021/03/02 11:19:32;;;;;;;16.77;15.23;;;30.10;36.10;;;;;;4984594;28;20192;-70
2021/03/02 11:21:57;;;;;;;16.87;15.43;;;28.00;36.90;;;;;;4976861;28;20609;-69
2021/03/02 11:24:24;;;;;;;16.43;15.13;;;27.50;38.20;;;;;;4984764;28;20561;-70
2021/03/02 11:26:50;;;;;;;16.20;14.70;;;28.20;37.60;;;;;;4985660;28;20544;-76
2021/03/02 11:29:15;;;;;;;17.40;15.80;;;28.70;36.60;;;;;;4991971;28;20445;-72
2021/03/02 11:31:41;;;;;;;16.43;14.70;;;29.80;36.20;;;;;;4978626;28;20346;-73
2021/03/02 11:34:06;;;;;;;17.07;15.50;;;30.30;35.00;;;;;;4987849;28;20277;-75
2021/03/02 11:36:32;;;;;;;15.73;14.30;;;30.40;34.70;;;;;;4989771;28;20172;-74
2021/03/02 11:38:57;;;;;;;14.97;13.60;;;31.20;34.30;;;;;;4984362;28;20180;-72
2021/03/02 11:41:23;;;;;;;15.73;14.33;;;32.20;33.20;;;;;;4983292;28;20247;-71
2021/03/02 11:43:48;;;;;;;15.67;14.37;;;32.20;32.90;;;;;;4977078;28;20191;-71
2021/03/02 11:46:14;;;;;;;15.90;14.60;;;30.60;32.90;;;;;;4982913;28;20601;-72
2021/03/02 11:48:39;;;;;;;16.37;14.77;;;30.60;33.50;;;;;;4991614;28;20232;-72
2021/03/02 11:51:05;;;;;;;15.77;14.27;;;28.90;33.80;;;;;;5007180;28;20684;-72
2021/03/02 11:53:31;;;;;;;15.50;14.20;;;29.50;33.90;;;;;;4997764;28;20179;-72
2021/03/02 11:55:56;;;;;;;16.07;14.57;;;29.20;33.10;;;;;;5003093;28;20198;-71
2021/03/02 11:58:22;;;;;;;16.17;14.87;;;30.40;33.70;;;;;;4988239;28;20195;-70
2021/03/02 12:00:48;;;;;;;17.30;15.90;;;32.10;32.50;;;;;;4978913;28;20218;-70
2021/03/02 12:03:13;;;;;;;14.67;13.37;;;31.10;31.90;;;;;;4983043;28;21348;-70
2021/03/02 12:05:39;;;;;;;16.47;14.87;;;31.00;32.60;;;;;;4978279;28;20435;-69
2021/03/02 12:08:05;;;;;;;17.33;15.70;;;30.50;32.80;;;;;;4985969;28;20187;-70
2021/03/02 12:10:31;;;;;;;14.90;13.70;;;31.40;32.10;;;;;;4979041;28;20218;-69
2021/03/02 12:12:57;;;;;;;16.80;15.23;;;32.70;31.00;;;;;;4983736;28;20431;-69
2021/03/02 12:15:22;;;;;;;15.07;13.87;;;32.60;30.50;;;;;;4983093;28;20270;-71
2021/03/02 12:17:48;;;;;;;16.40;14.87;;;32.40;31.00;;;;;;4986624;28;20184;-72
2021/03/02 12:20:13;;;;;;;17.00;15.50;;;33.40;30.10;;;;;;4979825;28;20200;-69
2021/03/02 12:22:39;;;;;;;16.70;15.20;;;34.50;29.40;;;;;;4985910;28;20657;-69
2021/03/02 12:25:07;;;;;;;15.93;14.63;;;34.00;28.90;;;;;;4981059;28;20182;-69
2021/03/02 12:27:33;;;;;;;15.60;14.50;;;35.00;29.00;;;;;;4991568;28;20430;-69
2021/03/02 12:29:58;;;;;;;16.07;14.73;;;36.00;28.40;;;;;;4991049;28;20451;-70
2021/03/02 12:32:24;;;;;;;16.40;14.70;;;35.80;27.90;;;;;;4991167;28;20203;-69
2021/03/02 12:34:49;;;;;;;16.17;14.77;;;35.60;28.10;;;;;;4990927;28;20187;-69
2021/03/02 12:37:15;;;;;;;16.67;14.97;;;35.50;28.20;;;;;;4991109;28;20482;-69
2021/03/02 12:39:41;;;;;;;16.50;14.80;;;35.90;27.90;;;;;;4990948;28;20591;-70
2021/03/02 12:42:07;;;;;;;16.80;15.30;;;35.80;28.00;;;;;;4991109;28;20193;-70
2021/03/02 12:44:33;;;;;;;15.87;14.40;;;35.40;27.80;;;;;;4990383;28;20175;-72